Time;durP1;ratioP1;P1;durP2;ratioP2;P2;SDS_P1;SDS_P2;PMS_P1;PMS_P2;Temp;Humidity;BMP_temperature;BMP_pressure;BME280_temperature;BME280_humidity;BME280_pressure;Samples;Min_cycle;Max_cycle;Signal;HPM_P1;HPM_P2
2022/10/04 00:01:21;;;;;;;;;10.75;9.25;;;;;;;;5055651;28;46178;-76
2022/10/04 00:03:49;;;;;;;;;8.00;6.25;;;;;;;;5055560;28;45359;-75
2022/10/04 00:06:19;;;;;;;;;8.50;7.00;;;;;;;;5055744;28;45287;-75
2022/10/04 00:08:49;;;;;;;;;6.50;6.50;;;;;;;;5094006;27;45454;-76
2022/10/04 00:11:21;;;;;;;;;9.00;8.00;;;;;;;;5095849;27;46198;-75
2022/10/04 00:13:49;;;;;;;;;7.75;7.75;;;;;;;;5095294;27;45343;-76
2022/10/04 00:16:19;;;;;;;;;10.00;7.75;;;;;;;;5096102;27;45374;-75
2022/10/04 00:18:45;;;;;;;;;10.25;8.00;;;;;;;;5096379;27;45536;-75
2022/10/04 00:21:10;;;;;;;;;8.00;7.00;;;;;;;;5095562;27;46115;-75
2022/10/04 00:23:35;;;;;;;;;9.50;7.50;;;;;;;;5096249;27;45611;-75
2022/10/04 00:26:02;;;;;;;;;5.40;5.40;;;;;;;;5096356;27;45374;-75
2022/10/04 00:28:29;;;;;;;;;9.50;7.50;;;;;;;;5095755;27;45310;-76
2022/10/04 00:31:10;;;;;;;;;6.25;6.25;;;;;;;;5095930;27;46599;-75
2022/10/04 00:33:36;;;;;;;;;6.00;6.00;;;;;;;;5064949;27;45341;-76
2022/10/04 00:36:21;;;;;;;;;7.00;6.25;;;;;;;;5096160;27;45646;-75
2022/10/04 00:39:01;;;;;;;;;7.75;6.75;;;;;;;;5083932;27;45561;-76
2022/10/04 00:41:27;;;;;;;;;7.00;7.00;;;;;;;;5095312;27;46263;-76
2022/10/04 00:43:54;;;;;;;;;7.25;7.25;;;;;;;;5095847;27;45317;-75
2022/10/04 00:46:25;;;;;;;;;6.00;6.00;;;;;;;;5095814;27;45355;-75
2022/10/04 00:48:52;;;;;;;;;7.00;7.00;;;;;;;;5095900;27;45399;-75
2022/10/04 00:51:23;;;;;;;;;7.75;6.50;;;;;;;;5095626;27;45271;-75
2022/10/04 00:54:03;;;;;;;;;7.75;7.00;;;;;;;;5095540;27;45227;-75
2022/10/04 00:56:28;;;;;;;;;6.00;5.67;;;;;;;;5095632;27;45415;-75
2022/10/04 00:58:57;;;;;;;;;8.50;5.75;;;;;;;;5095626;27;45411;-75
2022/10/04 01:01:24;;;;;;;;;7.00;7.00;;;;;;;;5095647;27;45330;-76
2022/10/04 01:03:52;;;;;;;;;6.75;6.75;;;;;;;;5094812;27;45374;-75
2022/10/04 01:06:19;;;;;;;;;7.00;6.00;;;;;;;;5096022;27;45491;-76
2022/10/04 01:08:46;;;;;;;;;7.00;7.00;;;;;;;;5095031;27;45510;-75
2022/10/04 01:11:32;;;;;;;;;7.50;7.50;;;;;;;;5094853;27;45420;-76
2022/10/04 01:14:04;;;;;;;;;8.25;7.00;;;;;;;;5015521;28;45921;-76
2022/10/04 01:16:33;;;;;;;;;8.50;6.75;;;;;;;;5032393;28;45519;-76
2022/10/04 01:19:20;;;;;;;;;5.25;5.25;;;;;;;;5032328;28;45571;-75
2022/10/04 01:21:46;;;;;;;;;6.00;6.00;;;;;;;;5025368;28;47320;-75
2022/10/04 01:24:11;;;;;;;;;7.00;6.75;;;;;;;;5034205;28;45293;-75
2022/10/04 01:26:38;;;;;;;;;7.00;7.00;;;;;;;;5035382;28;45511;-75
2022/10/04 01:29:14;;;;;;;;;6.50;6.50;;;;;;;;5035814;28;45445;-76
2022/10/04 01:31:41;;;;;;;;;7.25;6.00;;;;;;;;5018775;28;47846;-76
2022/10/04 01:34:07;;;;;;;;;7.75;7.00;;;;;;;;5035489;28;45411;-75
2022/10/04 01:36:32;;;;;;;;;6.75;6.50;;;;;;;;5035530;28;45990;-75
2022/10/04 01:38:58;;;;;;;;;7.25;6.50;;;;;;;;5035579;28;45556;-75
2022/10/04 01:41:28;;;;;;;;;7.25;7.25;;;;;;;;5035007;28;45959;-75
2022/10/04 01:43:57;;;;;;;;;10.00;8.00;;;;;;;;5035422;28;45952;-75
2022/10/04 01:46:26;;;;;;;;;6.00;5.25;;;;;;;;5035620;28;45444;-75
2022/10/04 01:48:53;;;;;;;;;7.00;7.00;;;;;;;;5035183;28;45350;-76
2022/10/04 01:51:21;;;;;;;;;9.00;9.00;;;;;;;;5073120;27;46280;-76
2022/10/04 01:53:46;;;;;;;;;7.50;6.00;;;;;;;;5098046;27;45437;-76
2022/10/04 01:56:20;;;;;;;;;7.25;7.00;;;;;;;;5098764;27;45394;-75
2022/10/04 01:58:48;;;;;;;;;6.25;5.75;;;;;;;;5098475;27;45440;-75
2022/10/04 02:01:16;;;;;;;;;7.25;6.25;;;;;;;;5098038;27;46240;-76
2022/10/04 02:03:44;;;;;;;;;7.25;7.25;;;;;;;;5098109;27;45375;-75
2022/10/04 02:06:11;;;;;;;;;7.00;6.00;;;;;;;;5098568;27;45388;-76
2022/10/04 02:08:38;;;;;;;;;7.75;6.00;;;;;;;;5097349;27;45529;-75
2022/10/04 02:11:04;;;;;;;;;7.25;6.00;;;;;;;;5098112;27;46250;-76
2022/10/04 02:13:37;;;;;;;;;9.00;8.00;;;;;;;;5098188;27;45168;-76
2022/10/04 02:16:03;;;;;;;;;6.00;6.00;;;;;;;;5098070;27;45740;-75
2022/10/04 02:18:30;;;;;;;;;6.00;6.00;;;;;;;;5098110;27;45437;-76
2022/10/04 02:20:57;;;;;;;;;5.33;5.33;;;;;;;;5097944;27;47380;-76
2022/10/04 02:23:22;;;;;;;;;6.75;6.75;;;;;;;;5097582;27;45289;-76
2022/10/04 02:25:48;;;;;;;;;6.33;4.67;;;;;;;;5097960;27;45361;-75
2022/10/04 02:28:14;;;;;;;;;8.00;6.00;;;;;;;;5097773;27;45475;-76
2022/10/04 02:32:56;;;;;;;;;7.75;6.50;;;;;;;;5097810;27;47013;-76
2022/10/04 02:33:30;;;;;;;;;5.75;5.75;;;;;;;;5097734;27;45287;-76
2022/10/04 02:35:57;;;;;;;;;5.00;5.00;;;;;;;;5096967;27;45383;-76
2022/10/04 02:38:24;;;;;;;;;5.00;5.00;;;;;;;;5097627;27;45216;-75
2022/10/04 02:40:49;;;;;;;;;5.75;5.75;;;;;;;;5097420;27;46040;-76
2022/10/04 02:43:21;;;;;;;;;8.33;5.00;;;;;;;;5097645;27;45399;-75
2022/10/04 02:45:49;;;;;;;;;8.25;7.00;;;;;;;;5097915;27;45449;-75
2022/10/04 02:48:26;;;;;;;;;6.75;5.75;;;;;;;;5097714;27;45440;-75
2022/10/04 02:50:53;;;;;;;;;4.00;4.00;;;;;;;;5097304;27;46214;-75
2022/10/04 02:53:42;;;;;;;;;9.00;6.00;;;;;;;;5096177;27;45460;-75
2022/10/04 02:56:09;;;;;;;;;5.25;5.25;;;;;;;;5096918;27;45415;-76
2022/10/04 02:58:37;;;;;;;;;7.75;6.75;;;;;;;;5097168;27;45870;-75
2022/10/04 03:01:02;;;;;;;;;6.75;6.75;;;;;;;;5097402;27;45375;-75
2022/10/04 03:03:36;;;;;;;;;5.50;5.50;;;;;;;;5097267;27;45309;-75
2022/10/04 03:06:09;;;;;;;;;7.75;6.75;;;;;;;;5097482;27;45330;-75
2022/10/04 03:08:43;;;;;;;;;8.67;7.00;;;;;;;;5096219;27;45326;-75
2022/10/04 03:11:10;;;;;;;;;5.33;4.67;;;;;;;;5096937;27;46288;-76
2022/10/04 03:13:36;;;;;;;;;5.50;5.50;;;;;;;;5097054;27;45389;-76
2022/10/04 03:16:02;;;;;;;;;6.00;6.00;;;;;;;;5097053;27;45496;-76
2022/10/04 03:18:28;;;;;;;;;5.25;5.25;;;;;;;;5097338;27;45441;-75
2022/10/04 03:20:54;;;;;;;;;5.00;5.00;;;;;;;;5096279;27;46218;-75
2022/10/04 03:23:20;;;;;;;;;6.00;6.00;;;;;;;;5096959;27;45303;-76
2022/10/04 03:25:51;;;;;;;;;6.00;6.00;;;;;;;;5097307;27;45379;-75
2022/10/04 03:28:16;;;;;;;;;5.00;5.00;;;;;;;;5096887;27;45393;-75
2022/10/04 03:30:43;;;;;;;;;5.00;5.00;;;;;;;;5096708;27;46949;-75
2022/10/04 03:33:11;;;;;;;;;8.25;6.25;;;;;;;;5078493;27;45257;-76
2022/10/04 03:35:37;;;;;;;;;6.50;6.50;;;;;;;;5096729;27;45282;-75
2022/10/04 03:38:07;;;;;;;;;3.00;2.50;;;;;;;;5096795;27;45275;-76
2022/10/04 03:40:36;;;;;;;;;5.25;5.25;;;;;;;;5096654;27;45378;-75
2022/10/04 03:43:03;;;;;;;;;7.50;7.50;;;;;;;;5096585;27;45341;-75
2022/10/04 03:45:28;;;;;;;;;5.00;4.50;;;;;;;;5096800;27;45381;-75
2022/10/04 03:47:57;;;;;;;;;6.00;5.25;;;;;;;;5095315;27;45524;-75
2022/10/04 03:50:32;;;;;;;;;5.75;5.25;;;;;;;;5095673;27;45348;-75
2022/10/04 03:53:03;;;;;;;;;5.00;5.00;;;;;;;;5096667;27;45473;-75
2022/10/04 03:55:43;;;;;;;;;3.67;3.00;;;;;;;;5096483;27;45447;-76
2022/10/04 03:58:09;;;;;;;;;4.67;4.67;;;;;;;;5096673;27;45390;-75
2022/10/04 04:00:37;;;;;;;;;6.33;4.67;;;;;;;;5096037;27;45981;-76
2022/10/04 04:03:06;;;;;;;;;5.00;5.00;;;;;;;;5096731;27;45297;-75
2022/10/04 04:05:34;;;;;;;;;6.25;6.25;;;;;;;;5095941;27;45441;-75
2022/10/04 04:08:09;;;;;;;;;3.00;3.00;;;;;;;;5095772;27;45370;-75
2022/10/04 04:10:38;;;;;;;;;4.00;4.00;;;;;;;;5096011;27;46051;-75
2022/10/04 04:13:15;;;;;;;;;6.00;5.00;;;;;;;;5096265;27;45356;-76
2022/10/04 04:15:42;;;;;;;;;7.00;5.67;;;;;;;;5096425;27;45313;-75
2022/10/04 04:18:13;;;;;;;;;5.00;5.00;;;;;;;;5095791;27;45496;-75
2022/10/04 04:20:39;;;;;;;;;4.33;4.00;;;;;;;;5095663;27;46311;-75
2022/10/04 04:23:13;;;;;;;;;5.00;5.00;;;;;;;;5095896;27;45369;-73
2022/10/04 04:25:40;;;;;;;;;4.00;4.00;;;;;;;;5096355;27;45367;-76
2022/10/04 04:28:24;;;;;;;;;6.00;4.67;;;;;;;;5095779;27;45339;-75
2022/10/04 04:30:52;;;;;;;;;5.33;5.00;;;;;;;;5095791;27;47713;-76
2022/10/04 04:33:43;;;;;;;;;7.00;6.00;;;;;;;;5095303;27;45426;-76
2022/10/04 04:36:13;;;;;;;;;4.25;4.00;;;;;;;;5091738;27;45500;-75
2022/10/04 04:39:33;;;;;;;;;5.00;5.00;;;;;;;;5095928;27;45214;-75
2022/10/04 04:41:25;;;;;;;;;3.33;3.33;;;;;;;;5095465;27;45787;-76
2022/10/04 04:43:50;;;;;;;;;4.00;4.00;;;;;;;;5095881;27;45328;-75
2022/10/04 04:46:15;;;;;;;;;7.50;6.75;;;;;;;;5096010;27;45276;-76
2022/10/04 04:48:46;;;;;;;;;6.33;5.00;;;;;;;;5095350;27;45490;-75
2022/10/04 04:51:18;;;;;;;;;5.00;5.00;;;;;;;;5095605;27;47044;-75
2022/10/04 04:53:45;;;;;;;;;5.25;5.25;;;;;;;;5095640;27;45318;-73
2022/10/04 04:56:10;;;;;;;;;4.75;4.00;;;;;;;;5095861;27;45397;-75
2022/10/04 04:58:37;;;;;;;;;6.25;5.50;;;;;;;;5096706;27;45272;-75
2022/10/04 05:01:05;;;;;;;;;5.50;5.00;;;;;;;;5099420;27;46292;-76
2022/10/04 05:03:32;;;;;;;;;4.75;4.75;;;;;;;;5098904;27;45488;-72
2022/10/04 05:06:01;;;;;;;;;6.00;6.00;;;;;;;;5099160;27;45325;-75
2022/10/04 05:08:28;;;;;;;;;5.50;5.50;;;;;;;;5098742;27;45523;-74
2022/10/04 05:10:59;;;;;;;;;7.00;5.00;;;;;;;;5098929;27;47107;-75
2022/10/04 05:13:50;;;;;;;;;5.33;4.67;;;;;;;;5098410;27;45453;-75
2022/10/04 05:16:23;;;;;;;;;5.25;5.25;;;;;;;;5094413;27;45480;-76
2022/10/04 05:18:54;;;;;;;;;3.00;3.00;;;;;;;;5098838;27;45402;-76
2022/10/04 05:21:27;;;;;;;;;4.50;4.50;;;;;;;;5098698;27;46249;-75
2022/10/04 05:23:56;;;;;;;;;6.67;5.00;;;;;;;;5098638;27;45248;-76
2022/10/04 05:26:28;;;;;;;;;4.75;4.75;;;;;;;;5099127;27;45437;-75
2022/10/04 05:28:55;;;;;;;;;4.25;4.00;;;;;;;;5098324;27;45387;-75
2022/10/04 05:31:20;;;;;;;;;4.75;4.75;;;;;;;;5098387;27;46428;-76
2022/10/04 05:33:48;;;;;;;;;5.50;4.75;;;;;;;;5098482;27;45288;-75
2022/10/04 05:36:32;;;;;;;;;6.00;5.00;;;;;;;;5098955;27;45305;-75
2022/10/04 05:39:05;;;;;;;;;4.75;4.75;;;;;;;;5098713;27;45338;-75
2022/10/04 05:41:45;;;;;;;;;5.00;5.00;;;;;;;;5098541;27;46965;-76
2022/10/04 05:44:24;;;;;;;;;5.25;5.25;;;;;;;;5098451;27;45547;-75
2022/10/04 05:46:50;;;;;;;;;5.00;5.00;;;;;;;;5098171;27;45370;-75
2022/10/04 05:49:18;;;;;;;;;4.00;4.00;;;;;;;;5098239;27;45398;-75
2022/10/04 05:51:59;;;;;;;;;5.75;5.75;;;;;;;;5098626;27;46164;-75
2022/10/04 05:54:25;;;;;;;;;5.00;5.00;;;;;;;;5098329;27;45522;-75
2022/10/04 05:57:16;;;;;;;;;4.25;4.25;;;;;;;;5098476;27;45358;-76
2022/10/04 06:00:05;;;;;;;;;8.00;7.00;;;;;;;;5098546;27;45331;-76
2022/10/04 06:02:50;;;;;;;;;7.50;5.00;;;;;;;;5097516;27;46239;-74
2022/10/04 06:05:15;;;;;;;;;5.25;5.25;;;;;;;;5098124;27;45459;-76
2022/10/04 06:07:50;;;;;;;;;2.75;2.75;;;;;;;;5097979;27;45464;-75
2022/10/04 06:10:15;;;;;;;;;4.33;4.33;;;;;;;;5097228;27;45404;-76
2022/10/04 06:12:41;;;;;;;;;4.00;4.00;;;;;;;;5097831;27;45350;-76
2022/10/04 06:15:26;;;;;;;;;6.80;5.00;;;;;;;;5097996;27;45401;-75
2022/10/04 06:17:51;;;;;;;;;4.67;4.00;;;;;;;;5098074;27;45341;-76
2022/10/04 06:20:25;;;;;;;;;4.25;4.25;;;;;;;;5098441;27;45333;-75
2022/10/04 06:22:56;;;;;;;;;6.50;5.00;;;;;;;;5097827;27;46085;-73
2022/10/04 06:25:30;;;;;;;;;7.67;5.67;;;;;;;;5097862;27;45385;-76
2022/10/04 06:28:12;;;;;;;;;4.00;4.00;;;;;;;;5097519;27;45240;-72
2022/10/04 06:30:45;;;;;;;;;5.25;5.25;;;;;;;;5097580;27;45344;-75
2022/10/04 06:33:28;;;;;;;;;6.67;4.67;;;;;;;;5097614;27;45475;-76
2022/10/04 06:35:56;;;;;;;;;5.75;5.75;;;;;;;;5097566;27;45458;-74
2022/10/04 06:38:40;;;;;;;;;6.50;5.50;;;;;;;;5097915;27;45446;-76
2022/10/04 06:41:08;;;;;;;;;7.00;5.75;;;;;;;;5097785;27;45484;-74
2022/10/04 06:43:39;;;;;;;;;4.75;4.75;;;;;;;;5097382;27;45393;-75
2022/10/04 06:46:24;;;;;;;;;7.50;4.75;;;;;;;;5097019;27;45409;-76
2022/10/04 06:49:08;;;;;;;;;6.33;4.00;;;;;;;;5097021;27;45360;-74
2022/10/04 06:51:41;;;;;;;;;5.00;5.00;;;;;;;;5097522;27;45377;-75
2022/10/04 06:54:06;;;;;;;;;3.67;3.67;;;;;;;;5097202;27;46008;-76
2022/10/04 06:56:39;;;;;;;;;5.00;5.00;;;;;;;;5097201;27;45230;-75
2022/10/04 06:59:13;;;;;;;;;4.67;4.67;;;;;;;;5098415;27;45362;-75
2022/10/04 07:01:50;;;;;;;;;4.67;4.67;;;;;;;;5100371;27;45412;-76
2022/10/04 07:04:18;;;;;;;;;6.00;6.00;;;;;;;;5097356;27;47182;-75
2022/10/04 07:07:22;;;;;;;;;3.67;3.67;;;;;;;;5096908;27;45428;-76
2022/10/04 07:09:49;;;;;;;;;4.33;4.33;;;;;;;;5084411;27;45346;-76
2022/10/04 07:12:16;;;;;;;;;4.00;4.00;;;;;;;;5097377;27;45563;-76
2022/10/04 07:14:47;;;;;;;;;4.67;4.00;;;;;;;;5096455;27;47130;-75
2022/10/04 07:17:18;;;;;;;;;6.00;6.00;;;;;;;;5097111;27;45278;-76
2022/10/04 07:19:48;;;;;;;;;4.67;4.67;;;;;;;;5097198;27;45440;-75
2022/10/04 07:22:18;;;;;;;;;5.00;5.00;;;;;;;;5097049;27;45412;-76
2022/10/04 07:24:49;;;;;;;;;3.67;3.67;;;;;;;;5096590;27;46387;-75
2022/10/04 07:27:17;;;;;;;;;3.67;3.00;;;;;;;;5096466;27;45487;-75
2022/10/04 07:29:45;;;;;;;;;3.00;3.00;;;;;;;;5096946;27;45306;-75
2022/10/04 07:32:16;;;;;;;;;4.33;4.00;;;;;;;;5096883;27;45338;-75
2022/10/04 07:35:00;;;;;;;;;4.00;4.00;;;;;;;;5096636;27;47259;-76
2022/10/04 07:37:27;;;;;;;;;5.00;4.00;;;;;;;;5096881;27;45767;-75
2022/10/04 07:39:58;;;;;;;;;4.33;4.33;;;;;;;;5096512;27;45337;-76
2022/10/04 07:42:30;;;;;;;;;5.00;5.00;;;;;;;;5096402;27;45758;-76
2022/10/04 07:45:02;;;;;;;;;6.33;6.00;;;;;;;;5096407;27;46012;-75
2022/10/04 07:47:28;;;;;;;;;4.67;4.33;;;;;;;;5096600;27;45342;-76
2022/10/04 07:49:54;;;;;;;;;5.00;4.00;;;;;;;;5096554;27;45338;-76
2022/10/04 07:52:22;;;;;;;;;3.00;3.00;;;;;;;;5096832;27;45338;-76
2022/10/04 07:55:05;;;;;;;;;6.00;4.33;;;;;;;;5096515;27;45417;-75
2022/10/04 07:57:46;;;;;;;;;4.00;4.00;;;;;;;;5084134;27;45229;-76
2022/10/04 08:00:27;;;;;;;;;4.33;3.00;;;;;;;;5096441;27;45463;-75
2022/10/04 08:02:52;;;;;;;;;5.67;5.00;;;;;;;;5096596;27;45369;-76
2022/10/04 08:05:17;;;;;;;;;5.00;4.00;;;;;;;;5096191;27;45407;-75
2022/10/04 08:07:48;;;;;;;;;4.67;4.00;;;;;;;;5096035;27;45350;-75
2022/10/04 08:10:37;;;;;;;;;4.33;4.33;;;;;;;;5096779;27;45420;-75
2022/10/04 08:13:15;;;;;;;;;4.67;4.67;;;;;;;;5032744;28;45596;-76
2022/10/04 08:15:41;;;;;;;;;4.00;4.00;;;;;;;;5033192;28;45470;-75
2022/10/04 08:18:26;;;;;;;;;2.67;2.67;;;;;;;;5032883;28;45428;-76
2022/10/04 08:20:55;;;;;;;;;4.00;4.00;;;;;;;;5033020;28;45410;-75
2022/10/04 08:23:32;;;;;;;;;7.67;5.00;;;;;;;;5033138;28;45283;-76
2022/10/04 08:25:58;;;;;;;;;4.33;4.00;;;;;;;;5032246;28;45511;-75
2022/10/04 08:31:50;;;;;;;;;6.00;6.00;;;;;;;;4993313;28;45462;-75
2022/10/04 08:34:30;;;;;;;;;4.67;4.67;;;;;;;;4997799;28;45398;-76
2022/10/04 08:37:06;;;;;;;;;4.67;4.00;;;;;;;;4999514;28;46094;-75
2022/10/04 08:39:31;;;;;;;;;4.00;4.00;;;;;;;;4999605;28;45343;-75
2022/10/04 08:41:56;;;;;;;;;5.00;5.00;;;;;;;;4999444;28;45413;-75
2022/10/04 08:44:41;;;;;;;;;7.00;5.00;;;;;;;;4999994;28;45395;-75
2022/10/04 08:47:12;;;;;;;;;5.33;4.67;;;;;;;;4999754;28;46401;-76
2022/10/04 08:49:56;;;;;;;;;3.67;3.67;;;;;;;;5018511;28;45445;-76
2022/10/04 08:52:35;;;;;;;;;3.67;3.67;;;;;;;;5047700;28;45475;-75
2022/10/04 08:55:06;;;;;;;;;4.00;4.00;;;;;;;;5059071;28;45364;-75
2022/10/04 08:57:50;;;;;;;;;6.00;5.00;;;;;;;;5059433;28;47077;-75
2022/10/04 09:00:19;;;;;;;;;6.00;3.33;;;;;;;;5059433;28;45392;-75
2022/10/04 09:02:50;;;;;;;;;5.00;4.00;;;;;;;;5059687;28;45355;-75
2022/10/04 09:05:15;;;;;;;;;7.00;4.00;;;;;;;;5059333;28;45466;-76
2022/10/04 09:07:40;;;;;;;;;4.00;4.00;;;;;;;;5071035;27;46041;-76
2022/10/04 09:10:24;;;;;;;;;4.00;4.00;;;;;;;;5102093;27;45521;-75
2022/10/04 09:13:09;;;;;;;;;4.67;4.67;;;;;;;;5102388;27;45390;-76
2022/10/04 09:15:34;;;;;;;;;4.33;4.33;;;;;;;;5102435;27;45477;-75
2022/10/04 09:18:21;;;;;;;;;5.00;5.00;;;;;;;;5101790;27;45606;-75
2022/10/04 09:20:46;;;;;;;;;4.00;4.00;;;;;;;;5101533;27;45373;-75
2022/10/04 09:23:11;;;;;;;;;5.33;4.00;;;;;;;;5101976;27;45339;-75
2022/10/04 09:26:05;;;;;;;;;4.00;4.00;;;;;;;;5102584;27;45360;-76
2022/10/04 09:28:33;;;;;;;;;4.00;4.00;;;;;;;;5101820;27;46351;-75
2022/10/04 09:31:19;;;;;;;;;4.00;4.00;;;;;;;;5102140;27;45437;-75
2022/10/04 09:33:50;;;;;;;;;4.00;4.00;;;;;;;;5091533;27;45343;-75
2022/10/04 09:36:31;;;;;;;;;4.67;4.67;;;;;;;;5101945;27;45458;-75
2022/10/04 09:39:15;;;;;;;;;4.67;4.33;;;;;;;;5101530;27;46245;-76
2022/10/04 09:41:50;;;;;;;;;4.00;4.00;;;;;;;;5101887;27;45505;-75
2022/10/04 09:44:18;;;;;;;;;3.33;3.33;;;;;;;;5101103;27;45251;-76
2022/10/04 09:46:56;;;;;;;;;7.00;5.00;;;;;;;;5098553;27;45433;-75
2022/10/04 09:49:26;;;;;;;;;3.67;3.67;;;;;;;;5098210;27;46338;-76
2022/10/04 09:51:51;;;;;;;;;4.67;4.67;;;;;;;;5098209;27;45351;-75
2022/10/04 09:54:25;;;;;;;;;5.33;4.33;;;;;;;;5098217;27;45263;-76
2022/10/04 09:57:09;;;;;;;;;5.00;5.00;;;;;;;;5098343;27;45496;-76
2022/10/04 09:59:52;;;;;;;;;3.67;3.33;;;;;;;;5098093;27;46255;-72
2022/10/04 10:02:17;;;;;;;;;4.67;3.00;;;;;;;;5097656;27;45375;-72
2022/10/04 10:05:03;;;;;;;;;4.00;4.00;;;;;;;;5098719;27;45430;-75
2022/10/04 10:07:51;;;;;;;;;4.00;4.00;;;;;;;;5097722;27;45481;-75
2022/10/04 10:13:39;;;;;;;;;3.00;3.00;;;;;;;;5084643;27;45316;-75
2022/10/04 10:16:18;;;;;;;;;4.67;4.67;;;;;;;;5098052;27;45476;-75
2022/10/04 10:18:44;;;;;;;;;3.00;3.00;;;;;;;;5097996;27;45476;-75
2022/10/04 10:21:14;;;;;;;;;4.00;4.00;;;;;;;;5097618;27;46076;-76
2022/10/04 10:23:46;;;;;;;;;4.00;4.00;;;;;;;;5098101;27;45344;-75
2022/10/04 10:26:21;;;;;;;;;4.00;3.67;;;;;;;;5097757;27;45311;-76
2022/10/04 10:29:15;;;;;;;;;4.00;4.00;;;;;;;;5097614;27;45828;-75
2022/10/04 10:31:58;;;;;;;;;6.00;5.67;;;;;;;;5097805;27;45366;-75
2022/10/04 10:34:35;;;;;;;;;4.33;4.00;;;;;;;;5098106;27;45325;-75
2022/10/04 10:37:15;;;;;;;;;4.67;3.33;;;;;;;;5088955;27;45325;-75
2022/10/04 10:39:48;;;;;;;;;4.33;4.00;;;;;;;;5097664;27;45360;-75
2022/10/04 10:42:32;;;;;;;;;5.00;5.00;;;;;;;;5097705;27;45365;-75
2022/10/04 10:45:00;;;;;;;;;3.00;3.00;;;;;;;;5097531;27;45387;-75
2022/10/04 10:47:37;;;;;;;;;4.00;4.00;;;;;;;;5097679;27;45404;-75
2022/10/04 10:50:05;;;;;;;;;7.00;5.67;;;;;;;;5097528;27;45225;-75
2022/10/04 10:52:53;;;;;;;;;2.33;2.33;;;;;;;;5096579;27;46531;-75
2022/10/04 10:55:30;;;;;;;;;4.67;3.33;;;;;;;;5096569;27;45662;-75
2022/10/04 10:58:10;;;;;;;;;3.50;3.50;;;;;;;;5096502;27;45314;-75
2022/10/04 11:00:42;;;;;;;;;4.00;4.00;;;;;;;;5097372;27;45501;-76
2022/10/04 11:03:13;;;;;;;;;5.00;5.00;;;;;;;;5097272;27;45275;-75
2022/10/04 11:05:41;;;;;;;;;4.67;4.00;;;;;;;;5097019;27;45335;-75
2022/10/04 11:08:16;;;;;;;;;0.00;0.00;;;;;;;;5096439;27;45347;-76
2022/10/04 11:11:00;;;;;;;;;5.75;5.75;;;;;;;;5096592;27;45495;-75
2022/10/04 11:13:35;;;;;;;;;3.00;3.00;;;;;;;;5096851;27;47523;-75
2022/10/04 11:16:20;;;;;;;;;3.67;3.67;;;;;;;;5096999;27;45336;-76
2022/10/04 11:19:05;;;;;;;;;5.00;4.00;;;;;;;;5097003;27;45392;-76
2022/10/04 11:21:49;;;;;;;;;3.33;3.33;;;;;;;;5096749;27;45584;-75
2022/10/04 11:24:33;;;;;;;;;4.00;3.00;;;;;;;;5096806;27;45492;-75
2022/10/04 11:27:14;;;;;;;;;4.00;4.00;;;;;;;;5097074;27;45501;-75
2022/10/04 11:29:42;;;;;;;;;4.50;4.50;;;;;;;;5096739;27;45388;-75
2022/10/04 11:32:27;;;;;;;;;4.50;4.00;;;;;;;;5096521;27;45410;-75
2022/10/04 11:35:11;;;;;;;;;3.67;3.67;;;;;;;;5096299;27;46235;-75
2022/10/04 11:37:52;;;;;;;;;3.67;3.67;;;;;;;;5096905;27;45394;-76
2022/10/04 11:40:38;;;;;;;;;5.33;4.00;;;;;;;;5083008;27;45286;-75
2022/10/04 11:43:26;;;;;;;;;2.00;2.00;;;;;;;;5096662;27;45381;-75
2022/10/04 11:46:10;;;;;;;;;5.50;5.50;;;;;;;;5088041;27;46132;-76
2022/10/04 11:48:53;;;;;;;;;2.33;2.33;;;;;;;;5096001;27;45393;-75
2022/10/04 11:51:37;;;;;;;;;4.00;4.00;;;;;;;;5096805;27;46032;-75
2022/10/04 11:54:06;;;;;;;;;3.67;3.67;;;;;;;;5083933;27;45173;-75
2022/10/04 11:56:39;;;;;;;;;3.67;3.67;;;;;;;;5096337;27;46391;-75
2022/10/04 11:59:04;;;;;;;;;3.00;3.00;;;;;;;;5083133;27;45561;-75
2022/10/04 12:01:46;;;;;;;;;4.00;4.00;;;;;;;;5096733;27;45478;-75
2022/10/04 12:04:41;;;;;;;;;3.67;3.67;;;;;;;;5083107;27;45400;-75
2022/10/04 12:07:42;;;;;;;;;3.67;3.67;;;;;;;;5095984;27;46308;-75
2022/10/04 12:10:21;;;;;;;;;3.33;3.33;;;;;;;;5022872;28;45583;-75
2022/10/04 12:13:04;;;;;;;;;4.00;3.00;;;;;;;;5032927;28;45373;-75
2022/10/04 12:15:30;;;;;;;;;4.00;4.00;;;;;;;;5033262;28;45451;-75
2022/10/04 12:18:29;;;;;;;;;3.00;3.00;;;;;;;;5032423;28;47306;-75
2022/10/04 12:21:12;;;;;;;;;4.00;4.00;;;;;;;;4993162;28;45566;-75
2022/10/04 12:23:56;;;;;;;;;4.33;2.67;;;;;;;;4993518;28;45515;-76
2022/10/04 12:26:24;;;;;;;;;2.00;2.00;;;;;;;;4993463;28;45382;-76
2022/10/04 12:29:27;;;;;;;;;3.00;3.00;;;;;;;;4993196;28;46371;-75
2022/10/04 12:32:05;;;;;;;;;4.00;4.00;;;;;;;;4914964;28;45386;-76
2022/10/04 12:34:39;;;;;;;;;3.00;3.00;;;;;;;;4915424;28;45720;-75
2022/10/04 12:37:12;;;;;;;;;4.33;4.33;;;;;;;;4915546;28;45532;-75
2022/10/04 12:39:46;;;;;;;;;3.00;3.00;;;;;;;;4915358;28;47184;-75
2022/10/04 12:42:12;;;;;;;;;4.00;4.00;;;;;;;;4915330;28;45300;-75
2022/10/04 12:44:40;;;;;;;;;2.75;2.75;;;;;;;;4929056;28;45309;-76
2022/10/04 12:47:34;;;;;;;;;3.33;2.67;;;;;;;;4953803;28;45486;-76
2022/10/04 12:50:17;;;;;;;;;4.00;4.00;;;;;;;;4953370;28;45940;-76
2022/10/04 12:52:54;;;;;;;;;2.67;2.67;;;;;;;;4953842;28;45421;-76
2022/10/04 12:55:37;;;;;;;;;3.00;3.00;;;;;;;;4953665;28;45359;-75
2022/10/04 12:58:08;;;;;;;;;4.25;3.50;;;;;;;;4985693;28;45344;-75
2022/10/04 13:00:39;;;;;;;;;5.75;5.00;;;;;;;;4992753;28;46313;-75
2022/10/04 13:03:17;;;;;;;;;2.33;2.00;;;;;;;;5061380;27;45437;-75
2022/10/04 13:05:46;;;;;;;;;5.50;4.75;;;;;;;;5095307;27;45320;-75
2022/10/04 13:08:23;;;;;;;;;4.00;4.00;;;;;;;;5094978;27;45460;-75
2022/10/04 13:11:07;;;;;;;;;4.00;4.00;;;;;;;;5095445;27;45366;-75
2022/10/04 13:13:44;;;;;;;;;4.00;3.33;;;;;;;;5077196;27;45388;-75
2022/10/04 13:16:28;;;;;;;;;4.00;3.67;;;;;;;;5094553;27;45444;-75
2022/10/04 13:19:12;;;;;;;;;3.00;3.00;;;;;;;;5094636;27;45331;-75
2022/10/04 13:21:39;;;;;;;;;4.00;4.00;;;;;;;;5085371;27;45353;-76
2022/10/04 13:24:27;;;;;;;;;4.00;4.00;;;;;;;;5098823;27;45396;-75
2022/10/04 13:27:01;;;;;;;;;3.00;3.00;;;;;;;;5086588;27;45332;-76
2022/10/04 13:29:42;;;;;;;;;4.67;4.67;;;;;;;;5098607;27;45378;-75
2022/10/04 13:32:16;;;;;;;;;4.33;4.33;;;;;;;;5098740;27;47275;-76
2022/10/04 13:34:51;;;;;;;;;3.67;3.67;;;;;;;;5098494;27;45287;-76
2022/10/04 13:37:35;;;;;;;;;5.33;5.33;;;;;;;;5098566;27;45334;-75
2022/10/04 13:40:15;;;;;;;;;4.00;4.00;;;;;;;;5098561;27;45287;-75
2022/10/04 13:42:51;;;;;;;;;3.00;3.00;;;;;;;;5098330;27;46371;-75
2022/10/04 13:45:25;;;;;;;;;2.67;2.67;;;;;;;;5098293;27;45467;-73
2022/10/04 13:47:50;;;;;;;;;3.00;3.00;;;;;;;;5098666;27;45354;-75
2022/10/04 13:50:27;;;;;;;;;4.67;3.67;;;;;;;;5098738;27;45423;-75
2022/10/04 13:58:39;;;;;;;;;3.67;3.00;;;;;;;;5098575;27;45452;-75
2022/10/04 14:01:24;;;;;;;;;2.67;2.67;;;;;;;;5098295;27;45405;-75
2022/10/04 14:03:59;;;;;;;;;3.00;3.00;;;;;;;;5098037;27;46274;-75
2022/10/04 14:06:36;;;;;;;;;2.67;2.33;;;;;;;;5098410;27;45447;-76
2022/10/04 14:09:30;;;;;;;;;3.00;3.00;;;;;;;;5097708;27;45549;-75
2022/10/04 14:12:07;;;;;;;;;4.00;4.00;;;;;;;;5034940;28;45454;-75
2022/10/04 14:14:51;;;;;;;;;4.33;4.33;;;;;;;;5034441;28;46255;-76
2022/10/04 14:17:37;;;;;;;;;4.75;4.75;;;;;;;;5034793;28;45988;-75
2022/10/04 14:20:28;;;;;;;;;4.33;4.00;;;;;;;;5035016;28;45470;-75
2022/10/04 14:22:59;;;;;;;;;4.33;4.00;;;;;;;;5035038;28;45440;-75
2022/10/04 14:25:43;;;;;;;;;3.00;3.00;;;;;;;;5034787;28;45317;-76
2022/10/04 14:28:17;;;;;;;;;4.67;4.67;;;;;;;;5034018;28;45493;-74
2022/10/04 14:30:42;;;;;;;;;4.00;4.00;;;;;;;;5034258;28;45427;-75
2022/10/04 14:33:34;;;;;;;;;4.67;4.00;;;;;;;;5034703;28;45348;-75
2022/10/04 14:36:22;;;;;;;;;4.00;4.00;;;;;;;;5034560;28;45525;-76
2022/10/04 14:38:47;;;;;;;;;5.00;4.00;;;;;;;;5023211;28;45490;-75
2022/10/04 14:41:12;;;;;;;;;5.00;4.00;;;;;;;;5034610;28;45490;-75
2022/10/04 14:43:51;;;;;;;;;4.00;4.00;;;;;;;;5034550;28;45354;-75
2022/10/04 14:46:16;;;;;;;;;4.25;4.25;;;;;;;;5033765;28;45667;-76
2022/10/04 14:49:00;;;;;;;;;4.33;4.00;;;;;;;;5073997;27;45342;-75
2022/10/04 14:51:44;;;;;;;;;4.33;4.33;;;;;;;;5097787;27;45469;-75
2022/10/04 14:54:21;;;;;;;;;5.67;5.67;;;;;;;;5085583;27;45546;-75
2022/10/04 14:56:52;;;;;;;;;6.00;4.00;;;;;;;;5096817;27;45392;-75
2022/10/04 14:59:18;;;;;;;;;5.67;4.00;;;;;;;;5097026;27;45383;-75
2022/10/04 15:02:06;;;;;;;;;5.67;3.00;;;;;;;;5097380;27;45437;-75
2022/10/04 15:04:52;;;;;;;;;5.33;3.67;;;;;;;;5097227;27;45346;-75
2022/10/04 15:07:37;;;;;;;;;6.00;5.25;;;;;;;;5013105;28;45361;-75
2022/10/04 15:10:23;;;;;;;;;6.00;5.00;;;;;;;;5013567;28;45855;-76
2022/10/04 15:12:54;;;;;;;;;4.00;4.00;;;;;;;;5013895;28;45481;-76
2022/10/04 15:15:26;;;;;;;;;7.33;5.00;;;;;;;;5014153;28;45416;-76
2022/10/04 15:17:51;;;;;;;;;4.33;4.33;;;;;;;;5013890;28;46156;-75
2022/10/04 15:20:21;;;;;;;;;0.33;0.33;;;;;;;;5014247;28;45530;-75
2022/10/04 15:22:53;;;;;;;;;8.67;4.67;;;;;;;;5014176;28;45390;-75
2022/10/04 15:25:38;;;;;;;;;4.00;4.00;;;;;;;;5013913;28;45372;-76
2022/10/04 15:28:08;;;;;;;;;4.33;4.33;;;;;;;;5013133;28;47286;-75
2022/10/04 15:30:44;;;;;;;;;4.33;3.67;;;;;;;;5013811;28;45277;-75
2022/10/04 15:33:19;;;;;;;;;7.75;6.00;;;;;;;;5013745;28;45419;-75
2022/10/04 15:35:56;;;;;;;;;7.00;5.00;;;;;;;;5014027;28;45496;-75